createdAt,value
2022-11-16T00:02:19.149Z,6.20
2022-11-16T00:04:47.230Z,6.20
2022-11-16T00:07:15.321Z,6.26
2022-11-16T00:09:43.352Z,6.26
2022-11-16T00:12:13.140Z,6.25
2022-11-16T00:14:41.131Z,6.24
2022-11-16T00:17:09.149Z,6.24
2022-11-16T00:19:38.507Z,6.24
2022-11-16T00:22:06.546Z,6.27
2022-11-16T00:24:34.618Z,6.23
2022-11-16T00:27:02.647Z,6.20
2022-11-16T00:29:30.681Z,6.22
2022-11-16T00:31:58.719Z,6.23
2022-11-16T00:34:26.762Z,6.23
2022-11-16T00:36:56.202Z,6.23
2022-11-16T00:39:24.265Z,6.24
2022-11-16T00:41:52.293Z,6.21
2022-11-16T00:44:20.310Z,6.19
2022-11-16T00:46:48.314Z,6.21
2022-11-16T00:49:16.570Z,6.18
2022-11-16T00:51:44.616Z,6.21
2022-11-16T00:54:14.052Z,6.22
2022-11-16T00:56:42.144Z,6.22
2022-11-16T00:59:10.210Z,6.23
2022-11-16T01:01:38.457Z,6.22
2022-11-16T01:04:06.494Z,6.26
2022-11-16T01:06:34.502Z,6.25
2022-11-16T01:09:02.925Z,6.27
2022-11-16T01:11:49.783Z,6.25
2022-11-16T01:14:18.020Z,6.23
2022-11-16T01:16:46.101Z,6.25
2022-11-16T01:19:14.113Z,6.27
2022-11-16T01:21:42.178Z,6.25
2022-11-16T01:24:10.295Z,6.25
2022-11-16T01:26:39.714Z,6.25
2022-11-16T01:29:07.765Z,6.27
2022-11-16T01:31:35.794Z,6.30
2022-11-16T01:34:03.843Z,6.29
2022-11-16T01:36:31.855Z,6.32
2022-11-16T01:39:00.002Z,6.32
2022-11-16T01:41:28.282Z,6.29
2022-11-16T01:44:00.239Z,6.32
2022-11-16T01:46:29.736Z,6.37
2022-11-16T01:49:04.596Z,6.40
2022-11-16T01:51:34.037Z,6.37
2022-11-16T01:54:03.989Z,6.36
2022-11-16T01:56:34.070Z,6.36
2022-11-16T01:59:03.827Z,6.37
2022-11-16T02:01:31.889Z,6.35
2022-11-16T02:03:59.987Z,6.37
2022-11-16T02:06:56.655Z,6.42
2022-11-16T02:09:58.346Z,6.39
2022-11-16T02:12:48.598Z,6.39
2022-11-16T02:15:26.242Z,6.39
2022-11-16T02:18:09.161Z,6.42
2022-11-16T02:20:52.797Z,6.43
2022-11-16T02:23:35.538Z,6.42
2022-11-16T02:26:21.445Z,6.43
2022-11-16T02:28:56.679Z,6.43
2022-11-16T02:31:31.360Z,6.42
2022-11-16T02:34:02.014Z,6.41
2022-11-16T02:36:30.031Z,6.40
2022-11-16T02:39:05.361Z,6.44
2022-11-16T02:41:36.828Z,6.45
2022-11-16T02:44:10.874Z,6.44
2022-11-16T02:46:44.644Z,6.44
2022-11-16T02:49:18.719Z,6.46
2022-11-16T02:51:48.550Z,6.50
2022-11-16T02:54:19.050Z,6.47
2022-11-16T02:56:54.937Z,6.46
2022-11-16T02:59:24.051Z,6.48
2022-11-16T03:02:03.623Z,6.45
2022-11-16T03:04:37.563Z,6.45
2022-11-16T03:07:08.802Z,6.44
2022-11-16T03:09:40.126Z,6.46
2022-11-16T03:12:11.955Z,6.46
2022-11-16T03:14:44.998Z,6.43
2022-11-16T03:17:19.235Z,6.45
2022-11-16T03:19:55.697Z,6.46
2022-11-16T03:22:30.166Z,6.40
2022-11-16T03:24:58.829Z,6.48
2022-11-16T03:27:37.211Z,6.47
2022-11-16T03:30:08.438Z,6.50
2022-11-16T03:32:55.446Z,6.52
2022-11-16T03:35:28.003Z,6.51
2022-11-16T03:37:59.764Z,6.50
2022-11-16T03:40:31.467Z,6.51
2022-11-16T03:43:02.630Z,6.48
2022-11-16T03:45:32.535Z,6.48
2022-11-16T03:48:02.107Z,6.50
2022-11-16T03:50:30.104Z,6.54
2022-11-16T03:52:58.103Z,6.57
2022-11-16T03:55:26.139Z,6.55
2022-11-16T03:57:54.143Z,6.56
2022-11-16T04:00:22.211Z,6.55
2022-11-16T04:02:50.252Z,6.56
2022-11-16T04:05:37.086Z,6.59
2022-11-16T04:08:22.528Z,6.59
2022-11-16T04:11:07.903Z,6.57
2022-11-16T04:13:53.906Z,6.53
2022-11-16T04:16:39.537Z,6.56
2022-11-16T04:19:24.959Z,6.56
2022-11-16T04:22:15.143Z,6.58
2022-11-16T04:24:46.892Z,6.57
2022-11-16T04:27:34.353Z,6.57
2022-11-16T04:30:04.060Z,6.58
2022-11-16T04:32:49.336Z,6.56
2022-11-16T04:35:34.719Z,6.57
2022-11-16T04:38:04.159Z,6.59
2022-11-16T04:40:32.155Z,6.56
2022-11-16T04:43:01.144Z,6.66
2022-11-16T04:45:47.037Z,6.65
2022-11-16T04:48:16.759Z,6.64
2022-11-16T04:50:46.124Z,6.61
2022-11-16T04:53:16.064Z,6.56
2022-11-16T04:55:44.111Z,6.62
2022-11-16T04:58:12.094Z,6.61
2022-11-16T05:00:40.097Z,6.60
2022-11-16T05:03:08.066Z,6.61
2022-11-16T05:05:36.104Z,6.57
2022-11-16T05:08:04.136Z,6.51
2022-11-16T05:10:33.605Z,6.53
2022-11-16T05:13:01.614Z,6.57
2022-11-16T05:15:29.707Z,6.58
2022-11-16T05:17:58.331Z,6.55
2022-11-16T05:20:43.927Z,6.55
2022-11-16T05:23:31.896Z,6.57
2022-11-16T05:26:01.317Z,6.46
2022-11-16T05:28:29.301Z,6.56
2022-11-16T05:30:57.336Z,6.53
2022-11-16T05:33:25.362Z,6.55
2022-11-16T05:35:53.478Z,6.55
2022-11-16T05:38:21.465Z,6.53
2022-11-16T05:40:49.505Z,6.55
2022-11-16T05:43:18.891Z,6.51
2022-11-16T05:45:46.879Z,6.45
2022-11-16T05:48:14.884Z,6.52
2022-11-16T05:50:43.376Z,6.56
2022-11-16T05:53:11.564Z,6.57
2022-11-16T05:55:39.576Z,6.50
2022-11-16T05:58:07.578Z,6.43
2022-11-16T06:00:36.955Z,6.45
2022-11-16T06:03:05.041Z,6.44
2022-11-16T06:05:40.057Z,6.43
2022-11-16T06:08:11.769Z,6.48
2022-11-16T06:10:39.750Z,6.48
2022-11-16T06:13:07.776Z,6.51
2022-11-16T06:15:39.648Z,6.55
2022-11-16T06:18:08.667Z,6.51
2022-11-16T06:20:39.064Z,6.55
2022-11-16T06:23:07.099Z,6.51
2022-11-16T06:25:35.167Z,6.56
2022-11-16T06:28:07.733Z,6.60
2022-11-16T06:30:36.301Z,6.58
2022-11-16T06:33:05.791Z,6.60
2022-11-16T06:35:33.789Z,6.58
2022-11-16T06:38:01.799Z,6.57
2022-11-16T06:40:29.780Z,6.57
2022-11-16T06:42:58.357Z,6.44
2022-11-16T06:45:26.331Z,6.50
2022-11-16T06:47:54.436Z,6.52
2022-11-16T06:50:23.811Z,6.55
2022-11-16T06:52:51.860Z,6.59
2022-11-16T06:55:19.859Z,6.64
2022-11-16T06:57:47.824Z,6.64
2022-11-16T07:00:16.848Z,6.65
2022-11-16T07:02:44.815Z,6.64
2022-11-16T07:05:12.857Z,6.63
2022-11-16T07:07:42.209Z,6.65
2022-11-16T07:10:11.258Z,6.65
2022-11-16T07:12:39.373Z,6.66
2022-11-16T07:15:08.363Z,6.65
2022-11-16T07:17:36.898Z,6.67
2022-11-16T07:20:05.431Z,6.70
2022-11-16T07:22:33.820Z,6.69
2022-11-16T07:25:03.534Z,6.68
2022-11-16T07:27:31.618Z,6.69
2022-11-16T07:30:00.874Z,6.73
2022-11-16T07:32:30.095Z,6.76
2022-11-16T07:34:59.606Z,6.80
2022-11-16T07:37:27.828Z,6.77
2022-11-16T07:39:55.849Z,6.79
2022-11-16T07:42:25.263Z,6.74
2022-11-16T07:44:53.255Z,6.77
2022-11-16T07:47:21.297Z,6.80
2022-11-16T07:49:49.791Z,6.74
2022-11-16T07:52:17.836Z,6.78
2022-11-16T07:54:45.881Z,6.82
2022-11-16T07:57:13.953Z,6.85
2022-11-16T07:59:43.365Z,6.86
2022-11-16T08:02:11.705Z,6.86
2022-11-16T08:04:39.919Z,6.92
2022-11-16T08:07:08.039Z,6.92
2022-11-16T08:09:38.121Z,6.94
2022-11-16T08:12:06.373Z,6.92
2022-11-16T08:14:34.388Z,6.94
2022-11-16T08:17:05.111Z,6.90
2022-11-16T08:19:33.171Z,6.90
2022-11-16T08:22:01.343Z,6.93
2022-11-16T08:24:29.451Z,6.91
2022-11-16T08:26:58.946Z,6.95
2022-11-16T08:29:26.991Z,6.98
2022-11-16T08:31:55.801Z,6.96
2022-11-16T08:34:25.309Z,6.95
2022-11-16T08:36:53.899Z,6.98
2022-11-16T08:39:22.657Z,7.01
2022-11-16T08:41:52.418Z,6.97
2022-11-16T08:44:20.384Z,7.08
2022-11-16T08:46:48.354Z,7.10
2022-11-16T08:49:16.651Z,7.12
2022-11-16T08:51:45.997Z,7.17
2022-11-16T08:54:14.001Z,7.15
2022-11-16T08:56:42.046Z,7.12
2022-11-16T08:59:10.033Z,7.08
2022-11-16T09:01:38.052Z,7.14
2022-11-16T09:04:06.363Z,7.18
2022-11-16T09:06:34.365Z,7.20
2022-11-16T09:09:04.949Z,7.24
2022-11-16T09:11:33.125Z,7.24
2022-11-16T09:14:01.187Z,7.25
2022-11-16T09:16:29.550Z,7.24
2022-11-16T09:19:00.800Z,7.21
2022-11-16T09:21:30.547Z,7.21
2022-11-16T09:23:59.453Z,7.22
2022-11-16T09:26:29.126Z,7.18
2022-11-16T09:28:59.530Z,7.26
2022-11-16T09:31:28.578Z,7.29
2022-11-16T09:33:58.476Z,7.34
2022-11-16T09:36:27.499Z,7.32
2022-11-16T09:39:30.099Z,7.40
2022-11-16T09:41:59.453Z,7.37
2022-11-16T09:44:42.699Z,7.35
2022-11-16T09:47:17.511Z,7.35
2022-11-16T09:50:04.130Z,7.42
2022-11-16T09:52:36.569Z,7.42
2022-11-16T09:55:21.696Z,7.45
2022-11-16T09:57:54.389Z,7.51
2022-11-16T10:00:23.920Z,7.58
2022-11-16T10:03:00.473Z,7.60
2022-11-16T10:05:33.962Z,7.64
2022-11-16T10:08:11.765Z,7.65
2022-11-16T10:10:46.538Z,7.57
2022-11-16T10:13:28.040Z,7.51
2022-11-16T10:16:04.904Z,7.54
2022-11-16T10:18:48.676Z,7.55
2022-11-16T10:21:33.216Z,7.58
2022-11-16T10:24:21.306Z,7.55
2022-11-16T10:26:56.779Z,7.46
2022-11-16T10:29:39.442Z,7.42
2022-11-16T10:32:18.738Z,7.51
2022-11-16T10:34:53.272Z,7.48
2022-11-16T10:37:22.934Z,7.52
2022-11-16T10:39:53.314Z,7.58
2022-11-16T10:42:28.124Z,7.58
2022-11-16T10:45:03.817Z,7.43
2022-11-16T10:47:41.936Z,7.42
2022-11-16T10:50:27.284Z,7.32
2022-11-16T10:52:55.292Z,7.40
2022-11-16T10:55:24.745Z,7.41
2022-11-16T10:57:57.036Z,7.43
2022-11-16T11:00:47.314Z,7.47
2022-11-16T11:03:16.181Z,7.44
2022-11-16T11:05:54.671Z,7.40
2022-11-16T11:08:28.100Z,7.38
2022-11-16T11:11:22.847Z,7.36
2022-11-16T11:14:05.101Z,7.46
2022-11-16T11:16:34.559Z,7.46
2022-11-16T11:19:24.929Z,7.47
2022-11-16T11:21:57.412Z,7.49
2022-11-16T11:24:43.803Z,7.52
2022-11-16T11:27:13.229Z,7.52
2022-11-16T11:29:44.250Z,7.56
2022-11-16T11:32:23.808Z,7.58
2022-11-16T11:34:54.980Z,7.57
2022-11-16T11:37:25.805Z,7.62
2022-11-16T11:40:20.960Z,7.65
2022-11-16T11:43:00.196Z,7.60
2022-11-16T11:45:37.641Z,7.59
2022-11-16T11:48:23.781Z,7.64
2022-11-16T11:50:55.244Z,7.61
2022-11-16T11:53:38.731Z,7.58
2022-11-16T11:56:07.708Z,7.58
2022-11-16T11:58:38.216Z,7.61
2022-11-16T12:01:34.236Z,7.66
2022-11-16T12:04:37.851Z,7.65
2022-11-16T12:07:17.713Z,7.65
2022-11-16T12:09:53.665Z,7.68
2022-11-16T12:12:44.930Z,7.62
2022-11-16T12:15:48.210Z,7.56
2022-11-16T12:18:37.262Z,7.61
2022-11-16T12:21:14.039Z,7.65
2022-11-16T12:24:02.601Z,7.68
2022-11-16T12:26:43.191Z,7.66
2022-11-16T12:29:28.872Z,7.69
2022-11-16T12:32:22.951Z,7.72
2022-11-16T12:35:02.405Z,7.69
2022-11-16T12:37:41.270Z,7.69
2022-11-16T12:40:28.036Z,7.69
2022-11-16T12:43:05.237Z,7.71
2022-11-16T12:45:50.792Z,7.64
2022-11-16T12:48:50.227Z,7.61
2022-11-16T12:51:31.807Z,7.58
2022-11-16T12:54:20.033Z,7.59
2022-11-16T12:56:56.440Z,7.48
2022-11-16T12:59:39.216Z,7.45
2022-11-16T13:02:19.093Z,7.50
2022-11-16T13:04:51.905Z,7.52
2022-11-16T13:07:22.630Z,7.48
2022-11-16T13:10:02.241Z,7.46
2022-11-16T13:12:33.177Z,7.45
2022-11-16T13:15:04.125Z,7.48
2022-11-16T13:17:36.180Z,7.44
2022-11-16T13:20:26.053Z,7.44
2022-11-16T13:23:01.822Z,7.44
2022-11-16T13:25:38.011Z,7.45
2022-11-16T13:28:14.084Z,7.47
2022-11-16T13:30:51.533Z,7.39
2022-11-16T13:33:32.626Z,7.50
2022-11-16T13:36:03.634Z,7.51
2022-11-16T13:38:51.027Z,7.49
2022-11-16T13:41:33.288Z,7.47
2022-11-16T13:44:02.183Z,7.51
2022-11-16T13:46:56.878Z,7.55
2022-11-16T13:49:32.268Z,7.56
2022-11-16T13:52:21.998Z,7.52
2022-11-16T13:54:54.427Z,7.55
2022-11-16T13:57:27.151Z,7.60
2022-11-16T14:00:10.516Z,7.57
2022-11-16T14:02:40.473Z,7.51
2022-11-16T14:05:17.654Z,7.48
2022-11-16T14:07:49.746Z,7.56
2022-11-16T14:10:51.384Z,7.51
2022-11-16T14:13:42.390Z,7.51
2022-11-16T14:16:33.190Z,7.53
2022-11-16T14:19:02.920Z,7.52
2022-11-16T14:21:47.040Z,7.55
2022-11-16T14:24:27.708Z,7.57
2022-11-16T14:27:07.958Z,7.49
2022-11-16T14:29:55.446Z,7.43
2022-11-16T14:32:25.793Z,7.44
2022-11-16T14:34:57.053Z,7.44
2022-11-16T14:37:35.519Z,7.45
2022-11-16T14:40:08.020Z,7.43
2022-11-16T14:43:09.951Z,7.31
2022-11-16T14:45:40.219Z,7.37
2022-11-16T14:48:18.186Z,7.37
2022-11-16T14:50:49.808Z,7.34
2022-11-16T14:53:21.354Z,7.35
2022-11-16T14:55:49.343Z,7.35
2022-11-16T14:58:24.148Z,7.34
2022-11-16T15:01:00.129Z,7.28
2022-11-16T15:03:32.719Z,7.31
2022-11-16T15:06:03.842Z,7.30
2022-11-16T15:08:36.609Z,7.31
2022-11-16T15:11:06.403Z,7.33
2022-11-16T15:13:34.855Z,7.29
2022-11-16T15:16:15.716Z,7.30
2022-11-16T15:19:00.098Z,7.28
2022-11-16T15:21:30.050Z,7.21
2022-11-16T15:26:46.198Z,7.17
2022-11-16T15:29:18.203Z,7.18
2022-11-16T15:31:48.452Z,7.20
2022-11-16T15:34:18.906Z,7.21
2022-11-16T15:36:47.540Z,7.14
2022-11-16T15:39:21.456Z,7.18
2022-11-16T15:41:50.957Z,7.16
2022-11-16T15:44:21.521Z,7.15
2022-11-16T15:46:57.047Z,7.20
2022-11-16T15:49:31.840Z,7.23
2022-11-16T15:52:00.772Z,7.20
2022-11-16T15:54:52.067Z,7.23
2022-11-16T15:57:22.718Z,7.21
2022-11-16T15:59:54.805Z,7.23
2022-11-16T16:02:28.326Z,7.17
2022-11-16T16:04:56.402Z,7.20
2022-11-16T16:07:39.878Z,7.20
2022-11-16T16:10:23.464Z,7.20
2022-11-16T16:12:53.471Z,7.12
2022-11-16T16:15:24.116Z,7.20
2022-11-16T16:17:55.279Z,7.20
2022-11-16T16:20:26.318Z,7.17
2022-11-16T16:22:56.905Z,7.22
2022-11-16T16:25:30.806Z,7.23
2022-11-16T16:28:00.404Z,7.19
2022-11-16T16:30:30.148Z,7.21
2022-11-16T16:32:59.966Z,7.19
2022-11-16T16:35:28.788Z,7.20
2022-11-16T16:38:01.164Z,7.21
2022-11-16T16:40:29.978Z,7.17
2022-11-16T16:42:59.068Z,7.20
2022-11-16T16:45:36.962Z,7.20
2022-11-16T16:48:07.190Z,7.15
2022-11-16T16:50:35.750Z,7.25
2022-11-16T16:53:03.861Z,7.23
2022-11-16T16:55:36.961Z,7.25
2022-11-16T17:00:46.947Z,7.22
2022-11-16T17:03:18.452Z,7.22
2022-11-16T17:05:46.634Z,7.00
2022-11-16T17:08:15.082Z,7.10
2022-11-16T17:10:46.940Z,7.19
2022-11-16T17:13:15.359Z,7.20
2022-11-16T17:15:44.259Z,7.20
2022-11-16T17:18:14.411Z,7.23
2022-11-16T17:20:45.566Z,7.16
2022-11-16T17:23:14.145Z,7.19
2022-11-16T17:25:42.695Z,7.24
2022-11-16T17:28:11.104Z,7.25
2022-11-16T17:30:39.236Z,7.24
2022-11-16T17:33:07.586Z,7.22
2022-11-16T17:35:36.991Z,7.23
2022-11-16T17:38:06.769Z,7.24
2022-11-16T17:40:34.998Z,7.28
2022-11-16T17:43:05.435Z,7.27
2022-11-16T17:45:34.118Z,7.25
2022-11-16T17:48:02.956Z,7.25
2022-11-16T17:50:31.327Z,7.25
2022-11-16T17:52:59.636Z,7.20
2022-11-16T17:55:29.406Z,7.25
2022-11-16T17:57:59.422Z,7.23
2022-11-16T18:00:27.907Z,7.27
2022-11-16T18:02:56.221Z,7.22
2022-11-16T18:05:24.639Z,7.26
2022-11-16T18:07:52.882Z,7.23
2022-11-16T18:10:21.304Z,7.28
2022-11-16T18:12:50.729Z,7.25
2022-11-16T18:15:28.497Z,7.24
2022-11-16T18:17:57.585Z,7.22
2022-11-16T18:20:28.060Z,7.28
2022-11-16T18:22:57.003Z,7.26
2022-11-16T18:25:25.647Z,7.26
2022-11-16T18:27:56.570Z,7.24
2022-11-16T18:30:25.600Z,7.25
2022-11-16T18:32:54.141Z,7.29
2022-11-16T18:35:22.713Z,7.31
2022-11-16T18:37:52.617Z,7.26
2022-11-16T18:40:21.095Z,7.31
2022-11-16T18:42:49.634Z,7.30
2022-11-16T18:45:20.426Z,7.30
2022-11-16T18:47:49.085Z,7.26
2022-11-16T18:50:25.473Z,7.30
2022-11-16T18:52:55.588Z,7.28
2022-11-16T18:55:24.297Z,7.30
2022-11-16T18:57:52.509Z,7.28
2022-11-16T19:00:23.004Z,7.30
2022-11-16T19:02:51.659Z,7.30
2022-11-16T19:05:20.304Z,7.26
2022-11-16T19:07:49.007Z,7.27
2022-11-16T19:10:17.471Z,7.25
2022-11-16T19:12:45.588Z,7.24
2022-11-16T19:15:13.934Z,7.25
2022-11-16T19:18:06.660Z,7.28
2022-11-16T19:20:32.375Z,7.31
2022-11-16T19:23:00.956Z,7.34
2022-11-16T19:25:31.568Z,7.35
2022-11-16T19:28:00.042Z,7.36
2022-11-16T19:30:28.521Z,7.35
2022-11-16T19:32:59.905Z,7.34
2022-11-16T19:35:28.614Z,7.34
2022-11-16T19:37:57.917Z,7.34
2022-11-16T19:40:26.373Z,7.32
2022-11-16T19:42:55.771Z,7.27
2022-11-16T19:45:24.378Z,7.28
2022-11-16T19:47:52.905Z,7.27
2022-11-16T19:50:28.199Z,7.30
2022-11-16T19:52:56.654Z,7.30
2022-11-16T19:55:27.059Z,7.25
2022-11-16T19:57:55.405Z,7.29
2022-11-16T20:00:24.030Z,7.28
2022-11-16T20:02:57.031Z,7.27
2022-11-16T20:05:27.996Z,7.25
2022-11-16T20:07:56.390Z,7.31
2022-11-16T20:10:24.464Z,7.31
2022-11-16T20:12:52.465Z,7.30
2022-11-16T20:15:20.922Z,7.29
2022-11-16T20:17:49.656Z,7.30
2022-11-16T20:20:18.370Z,7.30
2022-11-16T20:22:49.292Z,7.35
2022-11-16T20:25:17.555Z,7.32
2022-11-16T20:27:47.559Z,7.33
2022-11-16T20:30:15.800Z,7.34
2022-11-16T20:32:44.072Z,7.34
2022-11-16T20:35:17.750Z,7.30
2022-11-16T20:37:49.417Z,7.27
2022-11-16T20:40:18.243Z,7.24
2022-11-16T20:42:48.158Z,7.21
2022-11-16T20:45:16.799Z,7.19
2022-11-16T20:47:45.344Z,7.18
2022-11-16T20:50:13.413Z,7.13
2022-11-16T20:52:44.294Z,7.15
2022-11-16T20:55:15.507Z,7.11
2022-11-16T20:57:46.754Z,7.15
2022-11-16T21:00:16.246Z,7.19
2022-11-16T21:02:44.364Z,7.21
2022-11-16T21:05:12.371Z,7.15
2022-11-16T21:07:41.926Z,7.10
2022-11-16T21:10:20.629Z,7.09
2022-11-16T21:13:08.372Z,7.12
2022-11-16T21:15:36.589Z,7.12
2022-11-16T21:18:04.675Z,7.14
2022-11-16T21:20:32.892Z,7.12
2022-11-16T21:23:01.077Z,7.10
2022-11-16T21:25:29.212Z,7.09
2022-11-16T21:27:58.719Z,7.05
2022-11-16T21:30:26.887Z,7.06
2022-11-16T21:32:55.051Z,7.07
2022-11-16T21:35:23.702Z,7.08
2022-11-16T21:37:51.688Z,7.09
2022-11-16T21:40:19.878Z,7.09
2022-11-16T21:42:47.945Z,7.09
2022-11-16T21:45:17.405Z,7.09
2022-11-16T21:47:45.329Z,7.08
2022-11-16T21:53:01.410Z,7.12
2022-11-16T21:55:29.434Z,7.19
2022-11-16T21:57:57.747Z,7.19
2022-11-16T22:00:27.885Z,7.23
2022-11-16T22:02:55.957Z,7.23
2022-11-16T22:05:41.440Z,7.24
2022-11-16T22:08:11.676Z,7.27
2022-11-16T22:10:39.732Z,7.27
2022-11-16T22:13:07.700Z,7.28
2022-11-16T22:15:37.301Z,7.28
2022-11-16T22:18:05.810Z,7.32
2022-11-16T22:20:33.859Z,7.28
2022-11-16T22:23:01.854Z,7.35
2022-11-16T22:25:30.031Z,7.33
2022-11-16T22:28:19.571Z,7.28
2022-11-16T22:30:51.785Z,7.28
2022-11-16T22:33:20.515Z,7.25
2022-11-16T22:35:48.804Z,7.20
2022-11-16T22:38:16.797Z,7.19
2022-11-16T22:40:50.704Z,7.15
2022-11-16T22:43:19.087Z,7.08
2022-11-16T22:45:48.514Z,7.05
2022-11-16T22:48:17.031Z,7.04
2022-11-16T22:50:45.278Z,7.03
2022-11-16T22:53:15.262Z,6.99
2022-11-16T22:55:44.756Z,7.00
2022-11-16T22:58:12.699Z,7.07
2022-11-16T23:00:42.376Z,7.08
2022-11-16T23:03:11.903Z,7.06
2022-11-16T23:05:39.948Z,7.10
2022-11-16T23:08:07.963Z,7.11
2022-11-16T23:10:56.526Z,7.08
2022-11-16T23:14:01.996Z,7.11
2022-11-16T23:16:30.152Z,7.11
2022-11-16T23:19:00.394Z,7.09
2022-11-16T23:21:46.413Z,7.05
2022-11-16T23:24:33.977Z,7.05
2022-11-16T23:27:22.470Z,7.05
2022-11-16T23:29:50.839Z,7.03
2022-11-16T23:32:18.884Z,6.98
2022-11-16T23:34:48.422Z,6.93
2022-11-16T23:37:16.421Z,6.94
2022-11-16T23:39:44.494Z,6.95
2022-11-16T23:42:30.237Z,6.92
2022-11-16T23:44:58.410Z,6.86
2022-11-16T23:47:26.480Z,6.78
2022-11-16T23:49:55.815Z,6.67
2022-11-16T23:52:23.821Z,6.64
2022-11-16T23:54:52.625Z,6.59
2022-11-16T23:57:20.623Z,6.59
2022-11-16T23:59:48.648Z,6.57
